createdAt,value
2018-02-01T00:02:11.646Z,3.70
2018-02-01T00:04:46.585Z,4.10
2018-02-01T00:07:21.622Z,4.40
2018-02-01T00:09:56.706Z,5.10
2018-02-01T00:12:31.582Z,4.47
2018-02-01T00:15:06.610Z,5.13
2018-02-01T00:17:41.741Z,4.53
2018-02-01T00:20:16.575Z,3.17
2018-02-01T00:22:51.579Z,5.23
2018-02-01T00:25:26.410Z,4.20
2018-02-01T00:28:01.396Z,4.47
2018-02-01T00:30:36.318Z,4.60
2018-02-01T00:33:11.139Z,5.30
2018-02-01T00:35:51.653Z,4.53
2018-02-01T00:38:26.320Z,5.00
2018-02-01T00:41:01.462Z,5.73
2018-02-01T00:43:36.796Z,6.50
2018-02-01T00:46:12.330Z,6.22
2018-02-01T00:48:47.272Z,5.55
2018-02-01T00:51:22.543Z,5.00
2018-02-01T00:53:57.346Z,6.45
2018-02-01T00:56:32.430Z,5.05
2018-02-01T00:59:07.767Z,4.40
2018-02-01T01:01:42.922Z,5.87
2018-02-01T01:04:17.512Z,6.23
2018-02-01T01:06:52.855Z,5.17
2018-02-01T01:09:27.578Z,6.77
2018-02-01T01:12:03.051Z,6.20
2018-02-01T01:14:38.547Z,5.60
2018-02-01T01:17:13.479Z,5.50
2018-02-01T01:19:48.370Z,7.23
2018-02-01T01:22:25.264Z,6.80
2018-02-01T01:25:00.550Z,6.10
2018-02-01T01:27:36.824Z,7.62
2018-02-01T01:30:11.550Z,6.40
2018-02-01T01:32:46.629Z,4.40
2018-02-01T01:35:21.458Z,4.20
2018-02-01T01:37:56.419Z,6.43
2018-02-01T01:40:31.025Z,5.17
2018-02-01T01:43:05.941Z,3.83
2018-02-01T01:45:40.308Z,3.75
2018-02-01T01:48:15.891Z,5.57
2018-02-01T01:50:50.911Z,5.57
2018-02-01T01:53:25.662Z,5.40
2018-02-01T01:56:00.615Z,5.57
2018-02-01T01:58:36.870Z,6.22
2018-02-01T02:01:11.898Z,6.33
2018-02-01T02:03:46.810Z,5.82
2018-02-01T02:06:21.875Z,6.23
2018-02-01T02:08:56.687Z,8.00
2018-02-01T02:11:31.696Z,6.23
2018-02-01T02:14:06.747Z,7.23
2018-02-01T02:16:41.816Z,6.80
2018-02-01T02:19:16.407Z,7.17
2018-02-01T02:21:51.068Z,8.20
2018-02-01T02:24:25.710Z,8.47
2018-02-01T02:27:00.841Z,8.20
2018-02-01T02:29:36.746Z,7.65
2018-02-01T02:32:11.143Z,8.40
2018-02-01T02:34:46.630Z,8.68
2018-02-01T02:37:21.716Z,8.90
2018-02-01T02:39:56.733Z,9.40
2018-02-01T02:42:31.763Z,9.13
2018-02-01T02:45:06.595Z,9.40
2018-02-01T02:47:41.932Z,9.95
2018-02-01T02:50:16.739Z,8.07
2018-02-01T02:52:51.992Z,10.00
2018-02-01T02:55:26.950Z,10.03
2018-02-01T02:58:01.908Z,10.07
2018-02-01T03:00:37.038Z,8.03
2018-02-01T03:03:11.787Z,7.53
2018-02-01T03:05:46.747Z,11.47
2018-02-01T03:08:21.786Z,10.37
2018-02-01T03:10:56.664Z,10.97
2018-02-01T03:13:31.789Z,9.93
2018-02-01T03:16:06.690Z,12.15
2018-02-01T03:18:41.765Z,8.20
2018-02-01T03:21:16.778Z,11.23
2018-02-01T03:23:51.656Z,10.55
2018-02-01T03:26:26.731Z,10.80
2018-02-01T03:29:02.280Z,11.67
2018-02-01T03:31:37.471Z,9.63
2018-02-01T03:34:12.864Z,7.47
2018-02-01T03:36:48.031Z,11.45
2018-02-01T03:39:22.910Z,13.23
2018-02-01T03:41:57.782Z,8.90
2018-02-01T03:44:32.786Z,9.70
2018-02-01T03:47:07.867Z,11.40
2018-02-01T03:49:43.094Z,12.07
2018-02-01T03:52:18.130Z,12.60
2018-02-01T03:54:53.270Z,11.47
2018-02-01T03:57:27.878Z,10.50
2018-02-01T04:00:02.934Z,9.90
2018-02-01T04:02:38.384Z,12.60
2018-02-01T04:05:13.004Z,11.00
2018-02-01T04:07:49.382Z,10.23
2018-02-01T04:10:24.082Z,12.03
2018-02-01T04:12:59.051Z,11.90
2018-02-01T04:15:34.058Z,11.47
2018-02-01T04:18:09.038Z,12.10
2018-02-01T04:20:43.518Z,12.73
2018-02-01T04:23:18.454Z,10.77
2018-02-01T04:25:53.578Z,13.03
2018-02-01T04:28:28.052Z,16.20
2018-02-01T04:31:03.036Z,13.30
2018-02-01T04:33:38.310Z,11.70
2018-02-01T04:36:13.015Z,11.80
2018-02-01T04:38:48.157Z,12.43
2018-02-01T04:41:23.062Z,13.43
2018-02-01T04:43:58.020Z,12.90
2018-02-01T04:46:33.098Z,13.23
2018-02-01T04:49:07.810Z,11.75
2018-02-01T04:51:43.424Z,13.10
2018-02-01T04:54:18.994Z,10.00
2018-02-01T04:56:53.420Z,10.70
2018-02-01T04:59:28.463Z,13.67
2018-02-01T05:02:03.258Z,13.50
2018-02-01T05:04:38.199Z,15.87
2018-02-01T05:07:13.267Z,16.80
2018-02-01T05:09:48.654Z,14.50
2018-02-01T05:12:23.314Z,13.80
2018-02-01T05:14:58.359Z,13.80
2018-02-01T05:17:32.994Z,11.20
2018-02-01T05:20:08.298Z,11.20
2018-02-01T05:22:43.306Z,14.90
2018-02-01T05:25:18.312Z,13.73
2018-02-01T05:27:54.598Z,15.40
2018-02-01T05:30:29.271Z,16.07
2018-02-01T05:33:04.210Z,16.13
2018-02-01T05:35:39.663Z,19.90
2018-02-01T05:38:15.106Z,21.63
2018-02-01T05:40:50.210Z,21.13
2018-02-01T05:43:25.172Z,21.07
2018-02-01T05:46:00.239Z,16.20
2018-02-01T05:48:34.584Z,15.00
2018-02-01T05:51:09.596Z,14.83
2018-02-01T05:53:44.661Z,14.70
2018-02-01T05:56:19.518Z,15.90
2018-02-01T05:58:54.700Z,19.00
2018-02-01T06:01:30.008Z,16.40
2018-02-01T06:04:05.071Z,16.10
2018-02-01T06:06:40.266Z,17.77
2018-02-01T06:09:15.223Z,15.52
2018-02-01T06:11:50.202Z,17.58
2018-02-01T06:14:25.282Z,17.42
2018-02-01T06:17:00.027Z,15.00
2018-02-01T06:19:35.242Z,17.17
2018-02-01T06:22:10.215Z,17.40
2018-02-01T06:24:45.514Z,14.10
2018-02-01T06:27:20.252Z,16.60
2018-02-01T06:29:55.224Z,15.82
2018-02-01T06:32:30.190Z,15.97
2018-02-01T06:35:05.291Z,15.10
2018-02-01T06:37:40.582Z,8.47
2018-02-01T06:40:15.402Z,13.80
2018-02-01T06:42:50.582Z,13.20
2018-02-01T06:45:25.447Z,15.00
2018-02-01T06:48:00.225Z,12.73
2018-02-01T06:50:35.256Z,14.60
2018-02-01T06:53:10.318Z,14.77
2018-02-01T06:55:45.531Z,15.45
2018-02-01T06:58:19.910Z,15.50
2018-02-01T07:00:55.716Z,15.05
2018-02-01T07:03:31.278Z,12.30
2018-02-01T07:06:06.272Z,12.80
2018-02-01T07:08:40.894Z,7.82
2018-02-01T07:11:16.394Z,12.10
2018-02-01T07:13:51.560Z,11.27
2018-02-01T07:16:26.462Z,10.80
2018-02-01T07:19:01.431Z,11.60
2018-02-01T07:21:37.762Z,13.52
2018-02-01T07:24:13.247Z,10.55
2018-02-01T07:26:48.347Z,11.80
2018-02-01T07:29:23.411Z,10.60
2018-02-01T07:31:58.403Z,9.90
2018-02-01T07:34:33.560Z,8.47
2018-02-01T07:37:08.606Z,11.10
2018-02-01T07:39:43.778Z,11.10
2018-02-01T07:42:18.712Z,8.50
2018-02-01T07:44:53.710Z,11.60
2018-02-01T07:47:27.988Z,12.50
2018-02-01T07:50:02.496Z,13.57
2018-02-01T07:52:37.839Z,10.17
2018-02-01T07:55:14.376Z,8.35
2018-02-01T07:57:49.566Z,13.05
2018-02-01T08:00:23.604Z,13.87
2018-02-01T08:02:58.868Z,9.00
2018-02-01T08:05:33.942Z,11.20
2018-02-01T08:08:09.419Z,11.93
2018-02-01T08:10:44.459Z,14.90
2018-02-01T08:13:19.438Z,9.60
2018-02-01T08:15:54.070Z,12.30
2018-02-01T08:18:29.455Z,10.07
2018-02-01T08:21:04.141Z,9.57
2018-02-01T08:23:39.748Z,8.90
2018-02-01T08:26:14.558Z,8.03
2018-02-01T08:28:49.125Z,7.80
2018-02-01T08:31:24.022Z,6.63
2018-02-01T08:33:58.884Z,9.00
2018-02-01T08:36:33.811Z,7.60
2018-02-01T08:39:08.266Z,6.23
2018-02-01T08:41:43.751Z,7.93
2018-02-01T08:44:18.651Z,8.30
2018-02-01T08:46:53.484Z,7.70
2018-02-01T08:49:28.633Z,6.00
2018-02-01T08:52:03.399Z,5.57
2018-02-01T08:54:38.642Z,6.60
2018-02-01T08:57:13.622Z,8.40
2018-02-01T08:59:48.808Z,6.80
2018-02-01T09:02:23.659Z,7.00
2018-02-01T09:04:58.671Z,7.73
2018-02-01T09:07:33.660Z,6.43
2018-02-01T09:10:08.620Z,6.57
2018-02-01T09:12:43.139Z,7.97
2018-02-01T09:15:18.007Z,7.90
2018-02-01T09:17:52.959Z,7.18
2018-02-01T09:20:28.178Z,6.47
2018-02-01T09:23:03.052Z,9.80
2018-02-01T09:25:38.112Z,9.00
2018-02-01T09:28:13.014Z,9.83
2018-02-01T09:30:47.732Z,7.93
2018-02-01T09:33:22.766Z,7.40
2018-02-01T09:35:57.706Z,8.20
2018-02-01T09:38:32.841Z,9.33
2018-02-01T09:41:07.822Z,8.50
2018-02-01T09:43:46.115Z,11.50
2018-02-01T09:46:21.092Z,8.63
2018-02-01T09:49:05.346Z,11.18
2018-02-01T09:51:40.128Z,9.50
2018-02-01T09:54:15.655Z,10.43
2018-02-01T09:56:51.015Z,7.97
2018-02-01T09:59:25.394Z,7.13
2018-02-01T10:02:00.154Z,7.37
2018-02-01T10:04:35.270Z,6.27
2018-02-01T10:07:10.267Z,8.40
2018-02-01T10:09:45.003Z,8.00
2018-02-01T10:12:20.095Z,8.00
2018-02-01T10:14:55.062Z,6.82
2018-02-01T10:17:30.046Z,4.97
2018-02-01T10:20:05.289Z,8.90
2018-02-01T10:22:40.182Z,4.37
2018-02-01T10:25:14.771Z,8.57
2018-02-01T10:27:50.131Z,7.90
2018-02-01T10:30:25.043Z,10.17
2018-02-01T10:32:59.995Z,7.27
2018-02-01T10:35:34.996Z,7.57
2018-02-01T10:38:09.947Z,8.03
2018-02-01T10:40:45.034Z,7.65
2018-02-01T10:43:19.774Z,10.57
2018-02-01T10:45:55.118Z,11.02
2018-02-01T10:48:29.780Z,9.10
2018-02-01T10:51:04.470Z,10.13
2018-02-01T10:53:40.142Z,9.52
2018-02-01T10:56:17.068Z,11.07
2018-02-01T10:58:52.011Z,8.95
2018-02-01T11:01:26.886Z,6.23
2018-02-01T11:04:01.980Z,8.40
2018-02-01T11:06:37.678Z,9.63
2018-02-01T11:09:12.424Z,7.90
2018-02-01T11:11:48.247Z,8.68
2018-02-01T11:14:22.578Z,8.03
2018-02-01T11:16:58.182Z,9.10
2018-02-01T11:19:33.147Z,7.67
2018-02-01T11:22:07.930Z,7.30
2018-02-01T11:24:42.822Z,5.43
2018-02-01T11:27:17.280Z,5.30
2018-02-01T11:29:52.663Z,5.97
2018-02-01T11:32:27.238Z,6.13
2018-02-01T11:35:02.189Z,6.37
2018-02-01T11:37:38.121Z,3.70
2018-02-01T11:40:13.022Z,6.35
2018-02-01T11:42:47.586Z,5.60
2018-02-01T11:45:22.054Z,5.30
2018-02-01T11:47:57.309Z,6.60
2018-02-01T11:50:31.744Z,5.73
2018-02-01T11:53:07.065Z,6.63
2018-02-01T11:55:42.359Z,6.68
2018-02-01T11:58:17.226Z,7.87
2018-02-01T12:00:52.404Z,9.38
2018-02-01T12:03:27.222Z,7.80
2018-02-01T12:06:02.142Z,6.30
2018-02-01T12:08:38.422Z,8.32
2018-02-01T12:11:13.203Z,9.87
2018-02-01T12:13:48.192Z,11.55
2018-02-01T12:16:23.158Z,8.47
2018-02-01T12:18:58.067Z,9.47
2018-02-01T12:21:32.739Z,7.57
2018-02-01T12:24:06.960Z,3.33
2018-02-01T12:26:42.426Z,4.83
2018-02-01T12:29:17.167Z,5.37
2018-02-01T12:31:51.703Z,7.00
2018-02-01T12:34:27.043Z,6.78
2018-02-01T12:37:02.118Z,5.18
2018-02-01T12:39:36.798Z,7.80
2018-02-01T12:42:12.292Z,7.27
2018-02-01T12:44:46.770Z,5.07
2018-02-01T12:47:22.171Z,7.80
2018-02-01T12:49:57.283Z,8.10
2018-02-01T12:52:32.376Z,8.47
2018-02-01T12:55:07.568Z,4.03
2018-02-01T12:57:42.499Z,9.10
2018-02-01T13:00:17.432Z,8.70
2018-02-01T13:02:52.758Z,8.30
2018-02-01T13:05:28.432Z,9.30
2018-02-01T13:08:02.815Z,8.97
2018-02-01T13:10:38.677Z,9.67
2018-02-01T13:13:13.743Z,9.00
2018-02-01T13:15:48.698Z,10.23
2018-02-01T13:18:24.190Z,10.85
2018-02-01T13:20:59.284Z,11.03
2018-02-01T13:23:34.598Z,11.80
2018-02-01T13:26:09.617Z,9.83
2018-02-01T13:28:44.623Z,12.37
2018-02-01T13:31:19.587Z,10.93
2018-02-01T13:33:55.239Z,11.90
2018-02-01T13:36:30.350Z,7.93
2018-02-01T13:39:04.788Z,13.20
2018-02-01T13:41:40.059Z,8.80
2018-02-01T13:44:15.350Z,14.50
2018-02-01T13:46:51.750Z,11.23
2018-02-01T13:49:26.387Z,8.33
2018-02-01T13:52:01.004Z,9.13
2018-02-01T13:54:35.818Z,11.30
2018-02-01T13:57:10.609Z,11.60
2018-02-01T13:59:45.713Z,9.20
2018-02-01T14:02:20.534Z,6.27
2018-02-01T14:04:55.496Z,10.83
2018-02-01T14:07:30.531Z,12.10
2018-02-01T14:10:05.551Z,14.87
2018-02-01T14:12:40.780Z,15.80
2018-02-01T14:15:15.626Z,18.90
2018-02-01T14:17:50.692Z,20.30
2018-02-01T14:20:25.385Z,19.57
2018-02-01T14:22:59.866Z,15.37
2018-02-01T14:25:34.743Z,17.07
2018-02-01T14:28:09.324Z,16.70
2018-02-01T14:30:44.729Z,11.45
2018-02-01T14:33:19.582Z,15.67
2018-02-01T14:35:54.756Z,13.17
2018-02-01T14:38:29.614Z,14.50
2018-02-01T14:41:04.746Z,13.90
2018-02-01T14:43:39.811Z,14.77
2018-02-01T14:46:14.720Z,16.00
2018-02-01T14:48:50.005Z,17.95
2018-02-01T14:51:24.702Z,17.33
2018-02-01T14:53:59.800Z,16.20
2018-02-01T14:56:34.744Z,15.50
2018-02-01T14:59:09.723Z,9.83
2018-02-01T15:01:44.902Z,9.93
2018-02-01T15:04:19.660Z,8.70
2018-02-01T15:06:54.690Z,8.23
2018-02-01T15:09:29.635Z,9.70
2018-02-01T15:12:05.627Z,10.30
2018-02-01T15:14:40.903Z,10.65
2018-02-01T15:17:15.624Z,7.85
2018-02-01T15:19:50.802Z,6.33
2018-02-01T15:22:25.363Z,5.43
2018-02-01T15:25:00.214Z,5.50
2018-02-01T15:27:35.634Z,3.33
2018-02-01T15:30:10.687Z,4.57
2018-02-01T15:32:45.548Z,6.80
2018-02-01T15:35:20.497Z,9.90
2018-02-01T15:37:55.948Z,13.82
2018-02-01T15:40:30.842Z,10.43
2018-02-01T15:43:05.839Z,7.17
2018-02-01T15:45:40.750Z,10.83
2018-02-01T15:48:15.814Z,13.47
2018-02-01T15:50:51.094Z,13.90
2018-02-01T15:53:25.616Z,10.77
2018-02-01T15:56:00.745Z,10.53
2018-02-01T15:58:35.821Z,10.55
2018-02-01T16:01:10.783Z,9.30
2018-02-01T16:03:45.848Z,6.60
2018-02-01T16:06:20.862Z,8.13
2018-02-01T16:08:55.722Z,8.10
2018-02-01T16:11:30.696Z,7.35
2018-02-01T16:14:05.679Z,5.68
2018-02-01T16:16:40.569Z,5.87
2018-02-01T16:19:15.302Z,12.07
2018-02-01T16:21:50.325Z,15.00
2018-02-01T16:24:25.726Z,15.60
2018-02-01T16:27:00.902Z,8.10
2018-02-01T16:29:35.903Z,13.40
2018-02-01T16:32:10.910Z,14.70
2018-02-01T16:34:45.036Z,11.75
2018-02-01T16:37:19.452Z,10.67
2018-02-01T16:39:54.436Z,11.17
2018-02-01T16:42:29.968Z,7.10
2018-02-01T16:45:04.518Z,10.20
2018-02-01T16:47:39.952Z,11.53
2018-02-01T16:50:14.935Z,9.77
2018-02-01T16:52:49.984Z,9.90
2018-02-01T16:55:25.075Z,11.57
2018-02-01T16:58:00.020Z,10.37
2018-02-01T17:00:35.178Z,13.87
2018-02-01T17:03:10.208Z,13.00
2018-02-01T17:05:45.200Z,9.57
2018-02-01T17:08:20.230Z,9.90
2018-02-01T17:10:55.444Z,9.00
2018-02-01T17:13:30.416Z,8.40
2018-02-01T17:16:04.950Z,11.47
2018-02-01T17:18:40.257Z,10.23
2018-02-01T17:21:15.546Z,12.00
2018-02-01T17:23:50.427Z,9.50
2018-02-01T17:26:25.190Z,11.50
2018-02-01T17:29:00.203Z,11.23
2018-02-01T17:31:35.214Z,13.07
2018-02-01T17:34:10.143Z,17.37
2018-02-01T17:36:45.342Z,13.40
2018-02-01T17:39:20.343Z,11.47
2018-02-01T17:41:55.951Z,10.27
2018-02-01T17:44:30.526Z,13.17
2018-02-01T17:47:05.527Z,14.90
2018-02-01T17:49:40.588Z,16.90
2018-02-01T17:52:15.655Z,21.40
2018-02-01T17:54:50.583Z,18.67
2018-02-01T17:57:25.591Z,20.50
2018-02-01T18:00:00.590Z,12.93
2018-02-01T18:02:35.502Z,14.23
2018-02-01T18:05:10.324Z,8.90
2018-02-01T18:07:45.431Z,13.63
2018-02-01T18:10:20.226Z,12.30
2018-02-01T18:12:55.518Z,13.17
2018-02-01T18:15:30.362Z,13.83
2018-02-01T18:18:05.227Z,11.93
2018-02-01T18:20:40.022Z,12.60
2018-02-01T18:23:14.718Z,11.20
2018-02-01T18:25:49.500Z,13.57
2018-02-01T18:28:24.576Z,12.00
2018-02-01T18:30:59.286Z,14.37
2018-02-01T18:33:33.760Z,8.93
2018-02-01T18:36:08.044Z,13.50
2018-02-01T18:38:43.590Z,14.30
2018-02-01T18:41:18.376Z,13.00
2018-02-01T18:43:53.590Z,14.10
2018-02-01T18:46:28.270Z,11.70
2018-02-01T18:49:03.269Z,13.33
2018-02-01T18:51:39.647Z,13.27
2018-02-01T18:54:14.434Z,12.70
2018-02-01T18:56:49.392Z,10.10
2018-02-01T18:59:24.452Z,11.70
2018-02-01T19:01:59.029Z,12.05
2018-02-01T19:04:34.420Z,10.97
2018-02-01T19:07:09.362Z,9.83
2018-02-01T19:09:44.607Z,11.40
2018-02-01T19:12:19.355Z,8.87
2018-02-01T19:14:54.398Z,16.20
2018-02-01T19:17:29.520Z,17.77
2018-02-01T19:20:04.506Z,10.77
2018-02-01T19:22:40.122Z,12.87
2018-02-01T19:25:14.492Z,10.43
2018-02-01T19:27:49.431Z,11.97
2018-02-01T19:30:24.792Z,12.50
2018-02-01T19:32:59.912Z,12.00
2018-02-01T19:35:34.823Z,12.00
2018-02-01T19:38:09.924Z,10.07
2018-02-01T19:40:45.491Z,11.12
2018-02-01T19:43:20.599Z,11.60
2018-02-01T19:45:55.382Z,14.67
2018-02-01T19:48:30.434Z,13.50
2018-02-01T19:51:05.420Z,14.33
2018-02-01T19:53:40.707Z,12.60
2018-02-01T19:56:15.543Z,12.83
2018-02-01T19:58:50.771Z,12.77
2018-02-01T20:01:25.568Z,15.60
2018-02-01T20:04:00.433Z,17.20
2018-02-01T20:06:35.473Z,17.93
2018-02-01T20:09:10.467Z,14.07
2018-02-01T20:11:45.730Z,18.40
2018-02-01T20:14:20.616Z,18.10
2018-02-01T20:16:55.958Z,13.35
2018-02-01T20:19:30.559Z,13.50
2018-02-01T20:22:05.518Z,13.57
2018-02-01T20:24:40.636Z,10.70
2018-02-01T20:27:20.326Z,13.57
2018-02-01T20:29:55.796Z,12.30
2018-02-01T20:32:30.651Z,10.90
2018-02-01T20:35:05.092Z,8.87
2018-02-01T20:37:40.154Z,9.67
2018-02-01T20:40:14.643Z,11.37
2018-02-01T20:42:49.720Z,12.65
2018-02-01T20:45:24.678Z,11.40
2018-02-01T20:47:59.638Z,11.97
2018-02-01T20:50:34.771Z,15.20
2018-02-01T20:53:09.858Z,13.60
2018-02-01T20:55:44.865Z,10.30
2018-02-01T20:58:19.429Z,11.00
2018-02-01T21:00:54.179Z,13.67
2018-02-01T21:03:29.243Z,12.70
2018-02-01T21:06:03.918Z,13.00
2018-02-01T21:08:40.237Z,12.48
2018-02-01T21:11:14.965Z,13.37
2018-02-01T21:13:50.118Z,11.70
2018-02-01T21:16:25.011Z,14.00
2018-02-01T21:19:00.097Z,12.23
2018-02-01T21:21:34.843Z,14.13
2018-02-01T21:24:09.759Z,12.70
2018-02-01T21:26:44.907Z,8.27
2018-02-01T21:29:19.790Z,12.83
2018-02-01T21:31:55.100Z,9.80
2018-02-01T21:34:30.083Z,10.73
2018-02-01T21:37:05.116Z,12.30
2018-02-01T21:39:40.272Z,7.87
2018-02-01T21:42:15.559Z,12.57
2018-02-01T21:44:50.215Z,13.90
2018-02-01T21:47:25.275Z,12.07
2018-02-01T21:50:00.192Z,8.73
2018-02-01T21:52:35.412Z,14.40
2018-02-01T21:55:10.795Z,12.93
2018-02-01T21:57:45.702Z,10.70
2018-02-01T22:00:20.765Z,13.57
2018-02-01T22:02:56.072Z,13.03
2018-02-01T22:05:31.031Z,11.50
2018-02-01T22:08:06.490Z,13.87
2018-02-01T22:10:42.074Z,14.85
2018-02-01T22:13:16.834Z,13.60
2018-02-01T22:15:51.900Z,12.57
2018-02-01T22:18:26.725Z,13.70
2018-02-01T22:21:01.404Z,11.47
2018-02-01T22:23:36.800Z,13.95
2018-02-01T22:26:11.799Z,14.10
2018-02-01T22:28:46.954Z,13.20
2018-02-01T22:31:21.990Z,12.53
2018-02-01T22:33:57.004Z,15.47
2018-02-01T22:36:31.979Z,15.77
2018-02-01T22:39:06.935Z,13.83
2018-02-01T22:41:41.927Z,13.50
2018-02-01T22:44:17.208Z,13.80
2018-02-01T22:46:52.375Z,9.63
2018-02-01T22:49:27.528Z,14.13
2018-02-01T22:52:02.884Z,16.10
2018-02-01T22:54:38.022Z,14.13
2018-02-01T22:57:13.014Z,13.57
2018-02-01T22:59:48.128Z,14.70
2018-02-01T23:02:22.814Z,14.37
2018-02-01T23:04:58.138Z,10.77
2018-02-01T23:07:33.454Z,15.60
2018-02-01T23:10:08.464Z,15.10
2018-02-01T23:12:43.607Z,16.40
2018-02-01T23:15:18.471Z,14.87
2018-02-01T23:17:53.754Z,9.20
2018-02-01T23:20:28.366Z,13.87
2018-02-01T23:23:03.450Z,16.57
2018-02-01T23:25:38.446Z,14.40
2018-02-01T23:28:13.520Z,12.57
2018-02-01T23:30:48.554Z,15.50
2018-02-01T23:33:23.403Z,10.87
2018-02-01T23:35:58.400Z,15.70
2018-02-01T23:38:33.156Z,14.80
2018-02-01T23:41:08.122Z,15.87
2018-02-01T23:43:43.056Z,16.00
2018-02-01T23:46:18.128Z,16.90
2018-02-01T23:48:53.418Z,12.60
2018-02-01T23:51:28.666Z,13.90
2018-02-01T23:54:04.206Z,10.32
2018-02-01T23:56:40.144Z,15.60
2018-02-01T23:59:15.086Z,16.37
